Time;durP1;ratioP1;P1;durP2;ratioP2;P2;SDS_P1;SDS_P2;PMS_P1;PMS_P2;Temp;Humidity;BMP_temperature;BMP_pressure;BME280_temperature;BME280_humidity;BME280_pressure;Samples;Min_cycle;Max_cycle;Signal;HPM_P1;HPM_P2
2020/12/26 00:00:40;;;;;;;15.57;7.05;;;1.60;99.90;;;;;;5014434;28;20046;-84
2020/12/26 00:03:06;;;;;;;15.07;7.47;;;1.60;99.90;;;;;;5035252;28;20062;-82
2020/12/26 00:05:31;;;;;;;23.33;7.70;;;1.60;99.90;;;;;;5031791;28;20037;-83
2020/12/26 00:07:57;;;;;;;16.92;7.57;;;1.60;99.90;;;;;;5016338;28;20030;-83
2020/12/26 00:10:22;;;;;;;24.63;7.95;;;1.60;99.90;;;;;;5037030;28;20129;-84
2020/12/26 00:12:48;;;;;;;22.63;7.05;;;1.50;99.90;;;;;;5034353;28;20034;-84
2020/12/26 00:15:14;;;;;;;23.13;7.63;;;1.50;99.90;;;;;;5035469;28;20089;-84
2020/12/26 00:17:40;;;;;;;22.40;8.20;;;1.50;99.90;;;;;;5033154;28;20042;-84
2020/12/26 00:20:06;;;;;;;15.07;7.15;;;1.50;99.90;;;;;;5033729;28;20049;-84
2020/12/26 00:22:35;;;;;;;18.50;7.75;;;1.40;99.90;;;;;;5008827;28;20453;-83
2020/12/26 00:25:01;;;;;;;17.55;7.82;;;1.50;99.90;;;;;;5009633;28;20042;-83
2020/12/26 00:27:27;;;;;;;25.98;9.05;;;1.40;99.90;;;;;;5021350;28;20029;-84
2020/12/26 00:29:52;;;;;;;28.73;8.57;;;1.40;99.90;;;;;;5012890;28;20060;-85
2020/12/26 00:32:21;;;;;;;23.90;7.57;;;1.40;99.90;;;;;;5002054;28;20071;-83
2020/12/26 00:34:46;;;;;;;22.70;8.30;;;1.30;99.90;;;;;;5012158;28;20060;-84
2020/12/26 00:37:16;;;;;;;21.70;8.70;;;1.20;99.90;;;;;;5022454;28;20045;-83
2020/12/26 00:39:42;;;;;;;16.65;7.75;;;1.10;99.90;;;;;;5000385;28;20624;-83
2020/12/26 00:42:07;;;;;;;19.90;7.97;;;1.10;99.90;;;;;;4958678;28;20034;-83
2020/12/26 00:44:33;;;;;;;23.23;8.43;;;1.10;99.90;;;;;;4988818;28;20046;-83
2020/12/26 00:46:58;;;;;;;18.50;8.02;;;1.00;99.90;;;;;;4976893;28;20495;-84
2020/12/26 00:49:24;;;;;;;17.25;7.35;;;1.00;99.90;;;;;;4976320;28;20100;-84
2020/12/26 00:51:49;;;;;;;18.95;8.13;;;1.00;99.90;;;;;;4981433;28;20106;-84
2020/12/26 00:54:15;;;;;;;20.23;8.07;;;1.00;99.90;;;;;;4988314;28;20124;-83
2020/12/26 00:56:40;;;;;;;22.60;8.95;;;1.10;99.90;;;;;;4992036;28;20033;-84
2020/12/26 00:59:06;;;;;;;19.75;8.50;;;0.90;99.90;;;;;;4999179;28;20046;-84
2020/12/26 01:01:31;;;;;;;23.50;8.65;;;0.90;99.90;;;;;;5011387;28;20113;-84
2020/12/26 01:03:57;;;;;;;23.92;9.07;;;0.90;99.90;;;;;;4977867;28;20084;-83
2020/12/26 01:06:22;;;;;;;20.95;7.50;;;0.90;99.90;;;;;;4954438;28;20073;-84
2020/12/26 01:08:48;;;;;;;24.73;8.27;;;0.80;99.90;;;;;;4998355;28;20034;-83
2020/12/26 01:11:13;;;;;;;24.10;8.52;;;0.90;99.90;;;;;;4974814;28;20038;-83
2020/12/26 01:13:39;;;;;;;19.33;8.13;;;0.90;99.90;;;;;;5000883;28;20030;-83
2020/12/26 01:16:05;;;;;;;24.17;8.35;;;0.80;99.90;;;;;;4998071;28;20038;-82
2020/12/26 01:18:30;;;;;;;17.27;7.50;;;0.80;99.90;;;;;;5020489;28;20034;-83
2020/12/26 01:20:57;;;;;;;18.00;8.48;;;0.80;99.90;;;;;;5015016;28;20135;-82
2020/12/26 01:23:23;;;;;;;24.15;8.73;;;0.70;99.90;;;;;;4992208;28;20037;-83
2020/12/26 01:25:50;;;;;;;22.23;8.65;;;0.70;99.90;;;;;;5015990;28;20052;-82
2020/12/26 01:28:16;;;;;;;21.45;8.38;;;0.70;99.90;;;;;;5005955;28;20044;-84
2020/12/26 01:30:42;;;;;;;23.23;8.23;;;0.60;99.90;;;;;;4988754;28;20508;-84
2020/12/26 01:33:07;;;;;;;22.85;7.65;;;0.60;99.90;;;;;;4994183;28;20069;-84
2020/12/26 01:35:33;;;;;;;20.20;8.48;;;0.50;99.90;;;;;;4992129;28;20480;-84
2020/12/26 01:37:58;;;;;;;24.42;8.45;;;0.60;99.90;;;;;;5005018;28;20052;-82
2020/12/26 01:40:24;;;;;;;22.58;9.68;;;0.50;99.90;;;;;;5008357;28;20038;-82
2020/12/26 01:42:49;;;;;;;26.13;9.32;;;0.40;99.90;;;;;;5019940;28;20125;-82
2020/12/26 01:45:15;;;;;;;18.85;8.15;;;0.40;99.90;;;;;;5020844;28;20052;-82
2020/12/26 01:47:40;;;;;;;21.60;7.93;;;0.30;99.90;;;;;;5018947;28;20034;-83
2020/12/26 01:50:06;;;;;;;20.98;8.90;;;0.30;99.90;;;;;;5019581;28;20037;-83
2020/12/26 01:52:33;;;;;;;22.85;9.32;;;0.30;99.90;;;;;;5022103;28;20618;-84
2020/12/26 01:55:00;;;;;;;25.83;9.05;;;0.30;99.90;;;;;;5007499;28;20038;-82
2020/12/26 01:57:38;;;;;;;31.00;9.50;;;0.40;99.90;;;;;;5037375;28;20070;-85
2020/12/26 02:00:05;;;;;;;19.60;8.48;;;0.40;99.90;;;;;;5019754;28;20128;-83
2020/12/26 02:02:31;;;;;;;26.02;8.10;;;0.50;99.90;;;;;;5021949;28;20042;-83
2020/12/26 02:04:56;;;;;;;21.85;9.38;;;0.60;99.90;;;;;;5021431;28;20115;-84
2020/12/26 02:07:23;;;;;;;26.25;8.88;;;0.60;99.90;;;;;;5019198;28;20186;-83
2020/12/26 02:09:50;;;;;;;24.45;8.98;;;0.70;99.90;;;;;;5000409;28;20038;-83
2020/12/26 02:12:16;;;;;;;17.67;8.77;;;0.80;99.90;;;;;;5018317;28;20748;-82
2020/12/26 02:14:47;;;;;;;21.20;8.07;;;0.90;99.90;;;;;;5019243;28;20033;-82
2020/12/26 02:17:13;;;;;;;23.25;8.98;;;0.90;99.90;;;;;;5017482;28;20134;-81
2020/12/26 02:19:39;;;;;;;34.80;10.85;;;1.00;99.90;;;;;;5015539;28;20451;-82
2020/12/26 02:22:05;;;;;;;23.27;8.60;;;1.10;99.90;;;;;;5016214;28;20042;-82
2020/12/26 02:24:31;;;;;;;27.13;9.25;;;1.10;99.90;;;;;;5000655;28;20116;-82
2020/12/26 02:26:56;;;;;;;25.45;8.50;;;1.10;99.90;;;;;;5016460;28;20116;-82
2020/12/26 02:29:22;;;;;;;22.48;9.70;;;1.10;99.90;;;;;;5015669;28;20041;-82
2020/12/26 02:31:47;;;;;;;39.70;9.38;;;1.10;99.90;;;;;;5018242;28;20034;-82
2020/12/26 02:34:13;;;;;;;20.48;8.93;;;1.00;99.90;;;;;;4997601;28;20474;-85
2020/12/26 02:36:39;;;;;;;27.27;9.00;;;1.00;99.90;;;;;;5015640;28;20034;-82
2020/12/26 02:39:07;;;;;;;21.42;8.75;;;0.90;99.90;;;;;;5005523;28;20091;-84
2020/12/26 02:41:33;;;;;;;23.52;10.07;;;0.90;99.90;;;;;;5025362;28;20064;-83
2020/12/26 02:43:59;;;;;;;32.83;11.02;;;0.90;99.90;;;;;;5028429;28;20042;-84
2020/12/26 02:46:24;;;;;;;30.95;9.90;;;0.90;99.90;;;;;;5034097;28;20452;-82
2020/12/26 02:48:50;;;;;;;25.05;10.23;;;0.90;99.90;;;;;;5041810;28;20133;-82
2020/12/26 02:51:15;;;;;;;29.63;10.10;;;0.80;99.90;;;;;;5042167;28;20033;-83
2020/12/26 02:53:41;;;;;;;34.75;11.32;;;0.80;99.90;;;;;;5016097;28;20048;-84
2020/12/26 02:56:12;;;;;;;31.92;11.63;;;0.70;99.90;;;;;;5032286;28;20155;-84
2020/12/26 02:58:39;;;;;;;33.20;11.02;;;0.70;99.90;;;;;;5036106;28;20025;-84
2020/12/26 03:01:05;;;;;;;24.95;10.73;;;0.70;99.90;;;;;;5031606;28;20037;-84
2020/12/26 03:03:30;;;;;;;34.88;11.50;;;0.70;99.90;;;;;;5033102;28;20034;-83
2020/12/26 03:05:56;;;;;;;28.27;10.38;;;0.70;99.90;;;;;;5023753;28;20022;-83
2020/12/26 03:08:21;;;;;;;29.92;11.02;;;0.70;99.90;;;;;;5024728;28;20029;-83
2020/12/26 03:10:47;;;;;;;32.25;10.82;;;0.70;99.90;;;;;;5026776;28;20089;-85
2020/12/26 03:13:15;;;;;;;31.88;10.23;;;0.70;99.90;;;;;;5028553;28;20064;-82
2020/12/26 03:15:41;;;;;;;33.15;12.05;;;0.70;99.90;;;;;;5008990;28;20132;-84
2020/12/26 03:18:06;;;;;;;25.00;10.15;;;0.70;99.90;;;;;;5024716;28;20286;-84
2020/12/26 03:20:32;;;;;;;32.83;10.90;;;0.70;99.90;;;;;;5023338;28;20030;-83
2020/12/26 03:22:57;;;;;;;32.45;12.15;;;0.70;99.90;;;;;;5022651;28;20041;-83
2020/12/26 03:25:23;;;;;;;27.20;10.80;;;0.70;99.90;;;;;;5019946;28;20045;-84
2020/12/26 03:27:48;;;;;;;33.50;12.45;;;0.70;99.90;;;;;;5008733;28;20374;-84
2020/12/26 03:30:14;;;;;;;30.50;11.45;;;0.70;99.90;;;;;;5026584;28;20049;-82
2020/12/26 03:32:40;;;;;;;29.17;9.73;;;0.70;99.90;;;;;;5020239;28;20030;-81
2020/12/26 03:35:06;;;;;;;28.58;10.43;;;0.70;99.90;;;;;;5022204;28;20079;-83
2020/12/26 03:37:34;;;;;;;40.63;12.80;;;0.70;99.90;;;;;;5023329;28;20065;-83
2020/12/26 03:40:00;;;;;;;31.98;10.98;;;0.70;99.90;;;;;;5021491;28;20053;-83
2020/12/26 03:42:25;;;;;;;30.17;10.48;;;0.70;99.90;;;;;;5001481;28;20022;-83
2020/12/26 03:44:51;;;;;;;36.88;10.05;;;0.70;99.90;;;;;;5014397;28;20412;-83
2020/12/26 03:47:16;;;;;;;29.35;10.93;;;0.70;99.90;;;;;;5024751;28;20461;-83
2020/12/26 03:49:42;;;;;;;23.00;10.38;;;0.70;99.90;;;;;;5021176;28;20073;-83
2020/12/26 03:52:07;;;;;;;26.48;10.40;;;0.70;99.90;;;;;;5010676;28;20060;-83
2020/12/26 03:54:33;;;;;;;26.15;11.32;;;0.80;99.90;;;;;;5023965;28;20041;-84
2020/12/26 03:56:59;;;;;;;36.33;12.73;;;0.70;99.90;;;;;;5017993;28;20133;-82
2020/12/26 03:59:24;;;;;;;31.83;11.65;;;0.80;99.90;;;;;;5015114;28;20029;-83
2020/12/26 04:01:50;;;;;;;27.55;9.98;;;0.80;99.90;;;;;;5011244;28;20073;-85
2020/12/26 04:04:16;;;;;;;29.00;11.30;;;0.80;99.90;;;;;;5012750;28;20096;-85
2020/12/26 04:06:42;;;;;;;25.27;9.60;;;0.80;99.90;;;;;;5015392;28;20631;-85
2020/12/26 04:09:08;;;;;;;30.90;10.60;;;0.90;99.90;;;;;;5019804;28;20042;-84
2020/12/26 04:11:34;;;;;;;32.05;11.43;;;1.00;99.90;;;;;;5006281;28;20076;-82
2020/12/26 04:13:59;;;;;;;22.65;9.00;;;1.00;99.90;;;;;;5006416;28;20083;-82
2020/12/26 04:16:25;;;;;;;22.73;9.80;;;1.00;99.90;;;;;;4996991;28;20030;-82
2020/12/26 04:18:50;;;;;;;23.35;8.55;;;1.10;99.90;;;;;;5021288;28;20040;-83
2020/12/26 04:21:21;;;;;;;29.20;10.02;;;1.00;99.90;;;;;;5015290;28;20047;-83
2020/12/26 04:23:47;;;;;;;28.73;10.48;;;1.10;99.90;;;;;;5017744;28;20105;-84
2020/12/26 04:26:12;;;;;;;24.88;9.80;;;1.10;99.90;;;;;;5037848;28;20041;-82
2020/12/26 04:28:38;;;;;;;25.60;9.70;;;1.10;99.90;;;;;;5040332;28;20097;-83
2020/12/26 04:31:03;;;;;;;22.80;8.93;;;1.10;99.90;;;;;;5037367;28;20049;-83
2020/12/26 04:33:29;;;;;;;27.60;8.95;;;1.20;99.90;;;;;;5006629;28;20045;-84
2020/12/26 04:35:54;;;;;;;25.08;9.45;;;1.20;99.90;;;;;;5024033;28;20072;-83
2020/12/26 04:38:20;;;;;;;24.45;8.73;;;1.20;99.90;;;;;;5027611;28;20088;-84
2020/12/26 04:40:46;;;;;;;19.83;9.82;;;1.20;99.90;;;;;;5016105;28;20113;-84
2020/12/26 04:43:12;;;;;;;23.48;8.45;;;1.20;99.90;;;;;;5029062;28;20033;-84
2020/12/26 04:45:37;;;;;;;27.65;10.07;;;1.20;99.90;;;;;;5018050;28;20102;-83
2020/12/26 04:48:07;;;;;;;18.75;9.35;;;1.20;99.90;;;;;;5030550;28;20053;-83
2020/12/26 04:50:34;;;;;;;29.83;10.43;;;1.20;99.90;;;;;;5018930;28;20096;-84
2020/12/26 04:53:02;;;;;;;24.90;9.30;;;1.20;99.90;;;;;;5022366;28;20122;-84
2020/12/26 04:55:32;;;;;;;26.10;10.18;;;1.30;99.90;;;;;;5029909;28;20033;-82
2020/12/26 04:58:27;;;;;;;29.50;10.25;;;1.30;99.90;;;;;;5011434;28;20033;-85
2020/12/26 05:00:53;;;;;;;28.67;9.85;;;1.30;99.90;;;;;;5021542;28;20121;-85
2020/12/26 05:03:20;;;;;;;35.95;9.75;;;1.40;99.90;;;;;;5020347;28;20064;-83
2020/12/26 05:05:45;;;;;;;31.73;9.98;;;1.40;99.90;;;;;;5034444;28;20040;-84
2020/12/26 05:08:13;;;;;;;31.65;10.63;;;1.40;99.90;;;;;;5022144;28;20101;-84
2020/12/26 05:10:40;;;;;;;26.58;10.15;;;1.40;99.90;;;;;;5022353;28;20892;-84
2020/12/26 05:13:08;;;;;;;29.52;10.07;;;1.40;99.90;;;;;;5018401;28;20029;-83
2020/12/26 05:15:34;;;;;;;26.15;9.98;;;1.50;99.90;;;;;;5020826;28;20095;-83
2020/12/26 05:18:00;;;;;;;26.70;10.35;;;1.60;99.90;;;;;;5013764;28;20034;-82
2020/12/26 05:20:27;;;;;;;24.35;10.20;;;1.60;99.90;;;;;;4999834;28;20045;-82
2020/12/26 05:23:09;;;;;;;20.65;10.05;;;1.60;99.90;;;;;;5010047;28;20157;-84
2020/12/26 05:25:39;;;;;;;23.02;10.27;;;1.70;99.90;;;;;;4987085;28;20034;-83
2020/12/26 05:28:10;;;;;;;24.10;11.50;;;1.60;99.90;;;;;;4997985;28;20180;-84
2020/12/26 05:30:37;;;;;;;31.83;12.00;;;1.70;99.90;;;;;;5005846;28;20033;-84
2020/12/26 05:33:04;;;;;;;31.95;12.68;;;1.70;99.90;;;;;;5014991;28;20034;-84
2020/12/26 05:35:36;;;;;;;33.97;12.60;;;1.70;99.90;;;;;;5012654;28;20018;-84
2020/12/26 05:38:25;;;;;;;33.67;12.82;;;1.80;99.90;;;;;;5017250;28;20060;-82
2020/12/26 05:40:56;;;;;;;34.65;12.10;;;1.70;99.90;;;;;;5002320;28;20037;-84
2020/12/26 05:43:26;;;;;;;31.85;12.15;;;1.70;99.90;;;;;;5013113;28;20345;-82
2020/12/26 05:45:52;;;;;;;27.33;12.13;;;1.70;99.90;;;;;;5018099;28;20030;-82
2020/12/26 05:48:22;;;;;;;34.42;12.40;;;1.70;99.90;;;;;;5012729;28;20121;-84
2020/12/26 05:50:53;;;;;;;29.33;12.82;;;1.80;99.90;;;;;;5019986;28;20042;-84
2020/12/26 05:53:23;;;;;;;35.28;12.27;;;1.70;99.90;;;;;;4999388;28;20400;-84
2020/12/26 05:55:49;;;;;;;33.45;11.75;;;1.80;99.90;;;;;;5009184;28;20041;-84
2020/12/26 05:58:19;;;;;;;33.00;11.73;;;1.70;99.90;;;;;;4998533;28;20041;-84
2020/12/26 06:00:44;;;;;;;31.40;12.52;;;1.70;99.90;;;;;;5015590;28;20124;-84
2020/12/26 06:03:26;;;;;;;35.28;12.07;;;1.70;99.90;;;;;;4999485;28;20089;-83
2020/12/26 06:05:54;;;;;;;27.67;12.35;;;1.60;99.90;;;;;;5019043;28;20056;-84
2020/12/26 06:08:20;;;;;;;30.60;12.55;;;1.60;99.90;;;;;;4996694;28;20129;-83
2020/12/26 06:10:56;;;;;;;31.27;12.13;;;1.50;99.90;;;;;;5019790;28;20092;-84
2020/12/26 06:13:23;;;;;;;30.85;12.02;;;1.40;99.90;;;;;;4998081;28;20645;-83
2020/12/26 06:15:51;;;;;;;26.63;11.45;;;1.40;99.90;;;;;;5018909;28;20026;-83
2020/12/26 06:18:18;;;;;;;30.40;11.35;;;1.50;99.90;;;;;;5017467;28;20057;-84
2020/12/26 06:20:44;;;;;;;30.05;11.95;;;1.30;99.90;;;;;;5019966;28;20807;-83
2020/12/26 06:23:20;;;;;;;31.35;12.65;;;1.30;99.90;;;;;;5001460;28;20041;-84
2020/12/26 06:25:47;;;;;;;38.58;12.23;;;1.30;99.90;;;;;;5021381;28;20033;-84
2020/12/26 06:28:28;;;;;;;27.70;10.85;;;1.30;99.90;;;;;;5034419;28;20056;-85
2020/12/26 06:31:01;;;;;;;32.35;12.65;;;1.30;99.90;;;;;;5038111;28;20034;-83
2020/12/26 06:33:29;;;;;;;31.58;11.65;;;1.20;99.90;;;;;;5035695;28;20044;-84
2020/12/26 06:35:56;;;;;;;36.17;13.18;;;1.10;99.90;;;;;;5036631;28;20025;-84
2020/12/26 06:38:31;;;;;;;35.67;12.77;;;1.00;99.90;;;;;;5034224;28;20677;-84
2020/12/26 06:41:17;;;;;;;37.08;13.65;;;1.00;99.90;;;;;;5029728;28;20034;-84
2020/12/26 06:43:43;;;;;;;29.48;11.10;;;0.90;99.90;;;;;;5024118;28;20072;-84
2020/12/26 06:46:12;;;;;;;27.30;10.98;;;0.90;99.90;;;;;;5006081;28;20423;-82
2020/12/26 06:48:38;;;;;;;29.70;11.13;;;0.90;99.90;;;;;;5022408;28;20049;-84
2020/12/26 06:51:26;;;;;;;35.78;11.88;;;0.90;99.90;;;;;;5021057;28;20037;-84
2020/12/26 06:53:53;;;;;;;27.73;11.02;;;0.80;99.90;;;;;;5008904;28;20569;-84
2020/12/26 06:56:34;;;;;;;29.83;11.70;;;0.80;99.90;;;;;;5017021;28;20045;-84
2020/12/26 06:59:04;;;;;;;30.52;12.05;;;0.70;99.90;;;;;;5017661;28;20647;-84
2020/12/26 07:01:31;;;;;;;30.85;12.50;;;0.70;99.90;;;;;;5020897;28;20049;-84
2020/12/26 07:04:19;;;;;;;29.65;12.10;;;0.70;99.90;;;;;;4996739;28;20153;-84
2020/12/26 07:06:46;;;;;;;29.17;11.05;;;0.60;99.90;;;;;;5016032;28;20045;-84
2020/12/26 07:09:14;;;;;;;35.60;11.57;;;0.60;99.90;;;;;;5001044;28;20057;-84
2020/12/26 07:11:46;;;;;;;29.13;11.10;;;0.60;99.90;;;;;;5018056;28;20044;-84
2020/12/26 07:14:32;;;;;;;24.55;11.43;;;0.60;99.90;;;;;;5015404;28;20033;-84
2020/12/26 07:16:59;;;;;;;32.10;11.98;;;0.60;99.90;;;;;;5018600;28;20033;-84
2020/12/26 07:19:29;;;;;;;32.80;12.75;;;0.70;99.90;;;;;;5023110;28;20083;-83
2020/12/26 07:22:00;;;;;;;38.72;14.20;;;0.70;99.90;;;;;;5020604;28;20068;-84
2020/12/26 07:24:37;;;;;;;32.55;12.40;;;0.70;99.90;;;;;;5018016;28;20042;-84
2020/12/26 07:27:28;;;;;;;35.05;13.35;;;0.80;99.90;;;;;;5022435;28;20037;-83
2020/12/26 07:30:10;;;;;;;32.97;12.60;;;0.80;99.90;;;;;;4998323;28;20046;-82
2020/12/26 07:32:38;;;;;;;31.17;11.85;;;0.90;99.90;;;;;;5024350;28;20034;-83
2020/12/26 07:35:07;;;;;;;33.30;12.38;;;0.90;99.90;;;;;;5025155;28;20053;-82
2020/12/26 07:37:33;;;;;;;34.17;12.13;;;0.90;99.90;;;;;;5021360;28;20038;-83
2020/12/26 07:39:59;;;;;;;28.58;12.02;;;1.00;99.90;;;;;;5017823;28;20125;-84
2020/12/26 07:42:25;;;;;;;32.50;10.95;;;1.00;99.90;;;;;;5018810;28;20593;-83
2020/12/26 07:44:51;;;;;;;25.00;11.02;;;1.00;99.90;;;;;;5019417;28;20040;-83
2020/12/26 07:47:17;;;;;;;31.98;10.35;;;1.10;99.90;;;;;;5019800;28;20129;-82
2020/12/26 07:49:42;;;;;;;25.13;11.27;;;1.10;99.90;;;;;;5018059;28;20065;-83
2020/12/26 07:52:09;;;;;;;23.48;11.27;;;1.20;99.90;;;;;;5020995;28;20084;-82
2020/12/26 07:54:36;;;;;;;30.65;11.68;;;1.30;99.90;;;;;;5002720;28;20045;-82
2020/12/26 07:57:02;;;;;;;22.20;10.50;;;1.30;99.90;;;;;;5004985;28;20042;-83
2020/12/26 07:59:27;;;;;;;32.15;11.95;;;1.40;99.90;;;;;;5003766;28;20062;-83
2020/12/26 08:01:55;;;;;;;32.15;10.73;;;1.50;99.90;;;;;;5007121;28;20603;-83
2020/12/26 08:04:20;;;;;;;32.97;11.30;;;1.70;99.90;;;;;;5017352;28;20126;-83
2020/12/26 08:06:47;;;;;;;34.20;11.00;;;1.60;99.90;;;;;;5019850;28;20200;-83
2020/12/26 08:09:14;;;;;;;29.15;11.90;;;1.60;99.90;;;;;;5000242;28;20064;-83
2020/12/26 08:11:41;;;;;;;26.58;11.10;;;1.60;99.90;;;;;;5019646;28;20526;-83
2020/12/26 08:14:07;;;;;;;30.70;10.13;;;1.70;99.90;;;;;;5024330;28;20034;-83
2020/12/26 08:16:34;;;;;;;29.60;11.35;;;1.70;99.90;;;;;;5023493;28;20046;-83
2020/12/26 08:19:02;;;;;;;26.13;10.32;;;1.80;99.90;;;;;;5004235;28;20030;-83
2020/12/26 08:21:29;;;;;;;23.67;10.18;;;1.90;99.90;;;;;;5001708;28;20041;-83
2020/12/26 08:23:56;;;;;;;21.33;9.60;;;1.90;99.90;;;;;;5020968;28;20126;-83
2020/12/26 08:26:22;;;;;;;25.17;10.15;;;1.80;99.90;;;;;;5020546;28;20058;-83
2020/12/26 08:28:49;;;;;;;27.13;10.05;;;1.90;99.90;;;;;;5021646;28;20037;-83
2020/12/26 08:31:20;;;;;;;24.13;9.13;;;1.90;99.90;;;;;;5020033;28;20034;-83
2020/12/26 08:33:48;;;;;;;26.30;9.85;;;1.80;99.90;;;;;;5022694;28;20108;-83
2020/12/26 08:36:27;;;;;;;22.13;9.35;;;1.80;99.90;;;;;;5020587;28;20548;-84
2020/12/26 08:39:01;;;;;;;23.42;10.30;;;1.90;99.90;;;;;;5021548;28;20048;-83
2020/12/26 08:41:29;;;;;;;25.65;9.82;;;1.90;99.90;;;;;;5018348;28;20149;-83
2020/12/26 08:43:55;;;;;;;25.40;9.23;;;1.90;99.90;;;;;;5021771;28;20068;-83
2020/12/26 08:46:28;;;;;;;25.27;10.02;;;1.80;99.90;;;;;;5018219;28;20045;-83
2020/12/26 08:48:55;;;;;;;24.23;10.25;;;1.90;99.90;;;;;;5022539;28;20041;-81
2020/12/26 08:51:25;;;;;;;21.00;9.70;;;2.00;99.90;;;;;;5020727;28;20096;-82
2020/12/26 08:53:52;;;;;;;25.73;9.82;;;2.10;99.90;;;;;;5021731;28;20091;-81
2020/12/26 08:56:37;;;;;;;29.50;9.85;;;2.00;99.90;;;;;;5018742;28;20501;-82
2020/12/26 08:59:04;;;;;;;31.17;9.98;;;2.10;99.90;;;;;;5031886;28;20052;-81
2020/12/26 09:01:29;;;;;;;23.58;9.70;;;2.00;99.90;;;;;;5024642;28;20042;-82
2020/12/26 09:03:58;;;;;;;25.52;9.13;;;2.10;99.90;;;;;;5022721;28;20026;-83
2020/12/26 09:06:32;;;;;;;22.38;10.20;;;2.20;99.90;;;;;;5027223;28;20050;-82
2020/12/26 09:08:57;;;;;;;21.92;9.68;;;2.20;99.90;;;;;;5027866;28;20042;-82
2020/12/26 09:11:30;;;;;;;30.10;10.18;;;2.40;99.90;;;;;;5019103;28;20048;-82
2020/12/26 09:13:56;;;;;;;24.77;8.70;;;2.50;99.90;;;;;;5018088;28;20042;-82
2020/12/26 09:16:21;;;;;;;17.60;8.70;;;2.70;99.90;;;;;;5018376;28;20048;-82
2020/12/26 09:18:49;;;;;;;20.83;9.50;;;2.80;99.90;;;;;;5020912;28;20030;-82
2020/12/26 09:21:27;;;;;;;23.92;9.45;;;2.80;99.90;;;;;;5012807;28;20034;-82
2020/12/26 09:23:54;;;;;;;16.80;8.43;;;2.90;99.90;;;;;;5016329;28;20030;-82
2020/12/26 09:26:23;;;;;;;22.73;9.48;;;3.10;99.90;;;;;;5018222;28;20129;-82
2020/12/26 09:28:54;;;;;;;19.33;8.45;;;3.20;99.90;;;;;;5019106;28;20910;-83
2020/12/26 09:31:23;;;;;;;19.25;8.50;;;3.20;99.50;;;;;;5015694;28;20112;-82
2020/12/26 09:33:50;;;;;;;17.33;7.88;;;3.40;99.60;;;;;;5018446;28;21020;-82
2020/12/26 09:36:18;;;;;;;19.15;7.47;;;3.20;97.20;;;;;;5020815;28;20034;-81
2020/12/26 09:38:44;;;;;;;20.55;7.95;;;3.30;97.40;;;;;;5022666;28;20049;-82
2020/12/26 09:41:21;;;;;;;16.67;7.53;;;3.40;97.30;;;;;;5019756;28;20049;-81
2020/12/26 09:43:49;;;;;;;18.77;6.85;;;3.40;96.80;;;;;;5019281;28;20057;-82
2020/12/26 09:46:15;;;;;;;13.90;6.82;;;3.40;95.20;;;;;;5020074;28;20041;-82
2020/12/26 09:48:41;;;;;;;16.15;6.22;;;3.50;93.90;;;;;;5025224;28;20033;-83
2020/12/26 09:51:12;;;;;;;14.60;6.50;;;3.50;94.20;;;;;;5033059;28;20062;-83
2020/12/26 09:53:38;;;;;;;17.92;6.30;;;3.50;94.00;;;;;;5036493;28;20030;-84
2020/12/26 09:56:07;;;;;;;15.93;6.63;;;3.50;93.70;;;;;;5045203;28;20030;-81
2020/12/26 09:58:33;;;;;;;15.13;6.32;;;3.50;93.90;;;;;;5027788;28;20046;-83
2020/12/26 10:00:59;;;;;;;12.05;6.03;;;3.80;93.70;;;;;;5002505;28;20524;-82
2020/12/26 10:03:24;;;;;;;14.35;5.95;;;3.70;93.20;;;;;;5016004;28;20038;-83
2020/12/26 10:05:50;;;;;;;13.98;6.20;;;3.60;92.20;;;;;;5034426;28;20045;-82
2020/12/26 10:08:15;;;;;;;10.68;5.18;;;3.60;92.70;;;;;;5037599;28;20045;-82
2020/12/26 10:10:41;;;;;;;13.30;6.03;;;3.80;92.60;;;;;;5035807;28;20111;-82
2020/12/26 10:13:06;;;;;;;17.00;5.50;;;3.80;92.10;;;;;;5020730;28;20158;-85
2020/12/26 10:15:32;;;;;;;12.43;6.13;;;4.00;92.10;;;;;;5030035;28;20032;-82
2020/12/26 10:17:57;;;;;;;13.50;5.90;;;3.90;92.20;;;;;;5037881;28;20038;-82
2020/12/26 10:20:23;;;;;;;11.15;4.82;;;3.70;91.70;;;;;;5036119;28;20034;-82
2020/12/26 10:22:48;;;;;;;13.30;6.05;;;3.90;91.70;;;;;;5033281;28;20037;-82
2020/12/26 10:25:14;;;;;;;18.73;6.28;;;3.80;91.80;;;;;;5015657;28;20061;-81
2020/12/26 10:27:39;;;;;;;10.52;5.70;;;3.90;92.40;;;;;;5005881;28;20265;-83
2020/12/26 10:30:05;;;;;;;14.23;5.55;;;4.10;92.10;;;;;;5018945;28;20049;-82
2020/12/26 10:32:31;;;;;;;9.63;4.50;;;4.00;91.00;;;;;;5021362;28;20037;-82
2020/12/26 10:34:56;;;;;;;12.43;5.32;;;4.10;92.10;;;;;;5017854;28;20156;-82
2020/12/26 10:37:22;;;;;;;17.00;5.97;;;4.20;91.70;;;;;;5014392;28;20030;-82
2020/12/26 10:39:47;;;;;;;14.27;5.95;;;4.20;92.00;;;;;;5016295;28;20041;-82
2020/12/26 10:42:13;;;;;;;12.52;6.25;;;4.20;91.10;;;;;;5012250;28;20751;-82
2020/12/26 10:44:39;;;;;;;16.08;5.40;;;4.10;91.00;;;;;;5020047;28;20049;-82
2020/12/26 10:47:04;;;;;;;14.32;5.60;;;4.00;91.30;;;;;;5014865;28;20042;-81
2020/12/26 10:49:30;;;;;;;12.40;5.68;;;4.00;90.40;;;;;;5011296;28;20046;-83
2020/12/26 10:51:56;;;;;;;11.15;4.68;;;4.10;91.30;;;;;;5013426;28;20048;-83
2020/12/26 10:54:21;;;;;;;13.35;5.55;;;4.20;91.20;;;;;;5023753;28;20068;-83
2020/12/26 10:56:48;;;;;;;10.52;5.40;;;4.40;90.40;;;;;;5030277;28;20037;-82
2020/12/26 10:59:14;;;;;;;11.35;4.82;;;4.40;88.60;;;;;;5029514;28;20052;-84
2020/12/26 11:01:40;;;;;;;8.93;4.60;;;4.50;89.20;;;;;;5035246;28;20060;-83
2020/12/26 11:04:05;;;;;;;11.10;5.38;;;4.60;87.80;;;;;;5004688;28;20221;-83
2020/12/26 11:06:31;;;;;;;11.20;5.35;;;4.70;88.80;;;;;;5025327;28;20032;-83
2020/12/26 11:08:56;;;;;;;13.75;4.50;;;4.80;85.90;;;;;;5030020;28;20042;-83
2020/12/26 11:11:22;;;;;;;12.55;4.70;;;4.80;85.20;;;;;;5030112;28;20037;-83
2020/12/26 11:13:47;;;;;;;14.25;4.82;;;4.50;84.50;;;;;;5028244;28;20033;-82
2020/12/26 11:16:14;;;;;;;10.05;5.35;;;4.30;84.70;;;;;;5011053;28;20030;-83
2020/12/26 11:18:42;;;;;;;9.68;5.05;;;4.30;83.70;;;;;;5026720;28;20042;-84
2020/12/26 11:21:07;;;;;;;8.38;4.70;;;4.20;84.60;;;;;;5024132;28;20041;-83
2020/12/26 11:23:33;;;;;;;11.25;4.40;;;4.40;85.50;;;;;;5020350;28;20095;-82
2020/12/26 11:25:58;;;;;;;10.13;4.38;;;4.60;84.80;;;;;;5019532;28;20037;-82
2020/12/26 11:28:24;;;;;;;12.85;4.40;;;4.60;84.20;;;;;;5010889;28;20045;-83
2020/12/26 11:30:50;;;;;;;11.68;4.40;;;4.80;82.20;;;;;;5014757;28;20033;-82
2020/12/26 11:33:15;;;;;;;10.45;4.68;;;5.00;81.50;;;;;;5015778;28;20065;-82
2020/12/26 11:35:41;;;;;;;14.50;4.90;;;5.00;79.50;;;;;;5018501;28;20156;-84
2020/12/26 11:38:07;;;;;;;14.95;4.47;;;4.90;78.80;;;;;;5009883;28;20050;-84
2020/12/26 11:40:32;;;;;;;13.82;4.22;;;4.90;78.10;;;;;;5015504;28;20703;-83
2020/12/26 11:42:58;;;;;;;10.85;4.40;;;4.90;77.80;;;;;;5010155;28;20089;-84
2020/12/26 11:45:23;;;;;;;12.32;4.95;;;4.90;77.90;;;;;;5016589;28;20540;-83
2020/12/26 11:47:49;;;;;;;11.27;4.30;;;4.90;81.80;;;;;;5018051;28;20042;-83
2020/12/26 11:50:14;;;;;;;10.43;4.15;;;4.90;80.00;;;;;;5021229;28;20045;-82
2020/12/26 11:52:40;;;;;;;12.10;4.22;;;4.70;79.50;;;;;;5022812;28;20049;-82
2020/12/26 11:55:05;;;;;;;14.40;4.22;;;4.80;81.00;;;;;;5018669;28;20476;-82
2020/12/26 11:57:31;;;;;;;12.45;4.47;;;4.70;80.00;;;;;;5020134;28;20053;-82
2020/12/26 11:59:56;;;;;;;9.93;4.43;;;4.60;78.40;;;;;;5021083;28;20069;-82
2020/12/26 12:02:22;;;;;;;12.30;4.75;;;4.50;80.30;;;;;;5020180;28;20124;-82
2020/12/26 12:04:47;;;;;;;10.13;4.38;;;4.40;80.60;;;;;;5003778;28;20062;-83
2020/12/26 12:07:13;;;;;;;13.80;4.70;;;4.40;80.40;;;;;;5020661;28;20129;-83
2020/12/26 12:09:39;;;;;;;11.45;5.45;;;4.40;81.20;;;;;;5019794;28;20045;-83
2020/12/26 12:12:04;;;;;;;10.88;5.38;;;4.60;82.30;;;;;;5018460;28;20046;-83
2020/12/26 12:14:30;;;;;;;10.18;5.03;;;4.80;82.80;;;;;;5018187;28;20404;-83
2020/12/26 12:16:55;;;;;;;14.05;4.95;;;4.80;79.90;;;;;;5018786;28;20056;-83
2020/12/26 12:19:21;;;;;;;12.38;5.03;;;4.70;80.70;;;;;;5017375;28;20049;-82
2020/12/26 12:21:47;;;;;;;12.02;5.53;;;4.80;80.00;;;;;;5015153;28;20041;-83
2020/12/26 12:24:12;;;;;;;12.43;5.40;;;4.90;82.20;;;;;;5021518;28;20034;-82
2020/12/26 12:26:38;;;;;;;10.77;5.15;;;4.70;80.30;;;;;;5017180;28;20064;-83
2020/12/26 12:29:04;;;;;;;15.77;5.88;;;4.90;81.50;;;;;;5022529;28;20561;-83
2020/12/26 12:31:36;;;;;;;11.18;4.22;;;4.50;77.80;;;;;;5017041;28;21858;-83
2020/12/26 12:34:01;;;;;;;20.33;5.30;;;4.50;77.50;;;;;;5014253;28;20060;-84
2020/12/26 12:36:27;;;;;;;8.93;4.68;;;4.60;78.00;;;;;;5014338;28;20117;-84
2020/12/26 12:38:52;;;;;;;9.30;4.55;;;4.50;77.40;;;;;;5020153;28;20087;-84
2020/12/26 12:41:18;;;;;;;10.73;4.57;;;4.30;77.00;;;;;;5006123;28;20451;-84
2020/12/26 12:43:44;;;;;;;13.95;4.35;;;4.30;77.60;;;;;;4995290;28;20141;-82